createdAt,value
2018-01-24T00:00:22.922Z,14.90
2018-01-24T00:02:50.445Z,11.87
2018-01-24T00:05:18.050Z,11.23
2018-01-24T00:07:45.817Z,11.33
2018-01-24T00:10:13.355Z,12.00
2018-01-24T00:12:41.536Z,10.60
2018-01-24T00:15:09.697Z,11.10
2018-01-24T00:17:37.133Z,13.17
2018-01-24T00:20:04.603Z,11.07
2018-01-24T00:22:33.103Z,11.20
2018-01-24T00:25:00.790Z,13.07
2018-01-24T00:27:28.766Z,10.83
2018-01-24T00:29:56.725Z,11.83
2018-01-24T00:32:24.513Z,9.17
2018-01-24T00:34:52.904Z,16.60
2018-01-24T00:37:20.771Z,14.23
2018-01-24T00:39:49.108Z,12.20
2018-01-24T00:42:17.359Z,16.47
2018-01-24T00:44:44.746Z,12.70
2018-01-24T00:47:12.200Z,11.30
2018-01-24T00:49:40.441Z,12.53
2018-01-24T00:52:08.053Z,11.17
2018-01-24T00:54:36.302Z,11.53
2018-01-24T00:57:03.743Z,13.27
2018-01-24T00:59:32.294Z,11.77
2018-01-24T01:01:59.776Z,12.23
2018-01-24T01:04:27.255Z,10.57
2018-01-24T01:06:54.979Z,10.23
2018-01-24T01:09:22.490Z,10.00
2018-01-24T01:11:49.898Z,10.33
2018-01-24T01:14:17.315Z,10.13
2018-01-24T01:16:45.553Z,10.20
2018-01-24T01:19:13.091Z,9.87
2018-01-24T01:21:40.850Z,12.27
2018-01-24T01:24:08.720Z,10.40
2018-01-24T01:26:36.499Z,10.27
2018-01-24T01:29:03.939Z,9.00
2018-01-24T01:31:31.361Z,10.40
2018-01-24T01:33:58.995Z,10.20
2018-01-24T01:36:26.467Z,9.90
2018-01-24T01:38:54.675Z,8.90
2018-01-24T01:41:22.133Z,12.30
2018-01-24T01:43:50.288Z,9.47
2018-01-24T01:46:17.704Z,11.40
2018-01-24T01:48:45.248Z,12.33
2018-01-24T01:51:12.690Z,8.83
2018-01-24T01:53:40.870Z,8.43
2018-01-24T01:56:09.035Z,10.30
2018-01-24T01:58:37.219Z,9.83
2018-01-24T02:01:04.652Z,9.63
2018-01-24T02:03:32.107Z,12.70
2018-01-24T02:05:59.572Z,9.17
2018-01-24T02:08:27.931Z,9.00
2018-01-24T02:10:55.658Z,8.80
2018-01-24T02:13:23.429Z,8.90
2018-01-24T02:15:50.853Z,12.57
2018-01-24T02:18:18.370Z,9.33
2018-01-24T02:20:46.043Z,9.53
2018-01-24T02:23:13.891Z,12.10
2018-01-24T02:25:41.396Z,9.57
2018-01-24T02:28:09.039Z,8.93
2018-01-24T02:30:36.457Z,9.83
2018-01-24T02:33:04.127Z,8.80
2018-01-24T02:35:31.779Z,9.47
2018-01-24T02:37:59.352Z,9.57
2018-01-24T02:40:27.233Z,9.27
2018-01-24T02:42:54.708Z,9.80
2018-01-24T02:45:22.261Z,9.43
2018-01-24T02:47:49.758Z,8.83
2018-01-24T02:50:18.032Z,9.10
2018-01-24T02:52:45.759Z,9.33
2018-01-24T02:55:13.503Z,9.37
2018-01-24T02:57:41.089Z,8.77
2018-01-24T03:00:08.720Z,9.60
2018-01-24T03:02:36.955Z,10.20
2018-01-24T03:05:04.677Z,8.87
2018-01-24T03:07:32.263Z,8.37
2018-01-24T03:09:59.700Z,8.83
2018-01-24T03:12:27.129Z,8.93
2018-01-24T03:14:55.284Z,8.53
2018-01-24T03:17:22.998Z,8.53
2018-01-24T03:19:50.591Z,9.10
2018-01-24T03:22:18.323Z,8.50
2018-01-24T03:24:46.194Z,9.20
2018-01-24T03:27:13.673Z,8.67
2018-01-24T03:29:41.078Z,10.00
2018-01-24T03:32:08.486Z,8.83
2018-01-24T03:34:36.236Z,8.37
2018-01-24T03:37:03.763Z,9.10
2018-01-24T03:39:31.934Z,9.30
2018-01-24T03:41:59.650Z,7.60
2018-01-24T03:44:27.100Z,8.57
2018-01-24T03:46:54.586Z,7.30
2018-01-24T03:49:22.110Z,8.43
2018-01-24T03:51:50.248Z,8.70
2018-01-24T03:54:18.490Z,7.23
2018-01-24T03:56:46.813Z,8.97
2018-01-24T03:59:15.012Z,8.17
2018-01-24T04:01:43.186Z,7.33
2018-01-24T04:04:10.622Z,7.90
2018-01-24T04:06:38.677Z,7.93
2018-01-24T04:09:06.158Z,8.93
2018-01-24T04:11:34.376Z,8.80
2018-01-24T04:14:02.139Z,8.73
2018-01-24T04:16:30.105Z,8.67
2018-01-24T04:18:57.974Z,8.20
2018-01-24T04:21:25.665Z,8.33
2018-01-24T04:23:53.154Z,8.30
2018-01-24T04:26:20.633Z,8.27
2018-01-24T04:28:48.430Z,9.57
2018-01-24T04:31:16.679Z,8.70
2018-01-24T04:33:44.080Z,8.30
2018-01-24T04:36:11.478Z,8.00
2018-01-24T04:38:38.894Z,7.50
2018-01-24T04:41:06.397Z,9.43
2018-01-24T04:43:34.697Z,8.30
2018-01-24T04:46:02.191Z,9.83
2018-01-24T04:48:29.623Z,8.10
2018-01-24T04:50:57.835Z,7.87
2018-01-24T04:53:25.331Z,7.70
2018-01-24T04:55:53.489Z,8.50
2018-01-24T04:58:20.920Z,9.20
2018-01-24T05:00:48.348Z,8.30
2018-01-24T05:03:16.495Z,9.13
2018-01-24T05:05:43.869Z,8.33
2018-01-24T05:08:11.230Z,9.23
2018-01-24T05:10:39.422Z,8.43
2018-01-24T05:13:07.907Z,8.83
2018-01-24T05:15:36.162Z,8.40
2018-01-24T05:18:03.636Z,8.07
2018-01-24T05:20:31.785Z,7.93
2018-01-24T05:22:59.349Z,7.90
2018-01-24T05:25:26.811Z,7.50
2018-01-24T05:27:54.296Z,8.20
2018-01-24T05:30:22.131Z,7.50
2018-01-24T05:32:49.971Z,8.03
2018-01-24T05:35:17.818Z,8.30
2018-01-24T05:37:45.325Z,7.50
2018-01-24T05:40:12.778Z,7.90
2018-01-24T05:42:40.197Z,7.73
2018-01-24T05:45:08.014Z,7.10
2018-01-24T05:47:35.456Z,7.97
2018-01-24T05:50:02.914Z,8.33
2018-01-24T05:52:30.742Z,8.50
2018-01-24T05:54:58.235Z,7.60
2018-01-24T05:57:25.648Z,7.57
2018-01-24T05:59:53.883Z,8.50
2018-01-24T06:02:21.327Z,8.50
2018-01-24T06:04:48.714Z,8.67
2018-01-24T06:07:17.228Z,8.90
2018-01-24T06:09:44.835Z,7.73
2018-01-24T06:12:12.289Z,8.33
2018-01-24T06:14:39.782Z,9.83
2018-01-24T06:17:07.944Z,8.77
2018-01-24T06:19:35.359Z,7.90
2018-01-24T06:22:03.007Z,9.23
2018-01-24T06:24:30.523Z,8.63
2018-01-24T06:26:57.936Z,7.63
2018-01-24T06:29:25.395Z,8.50
2018-01-24T06:31:53.049Z,8.00
2018-01-24T06:34:20.565Z,8.53
2018-01-24T06:36:48.355Z,8.80
2018-01-24T06:39:16.859Z,8.10
2018-01-24T06:41:45.166Z,8.03
2018-01-24T06:44:12.548Z,8.40
2018-01-24T06:46:40.760Z,8.73
2018-01-24T06:49:08.445Z,8.13
2018-01-24T06:51:36.044Z,7.70
2018-01-24T06:54:03.610Z,7.93
2018-01-24T06:56:31.202Z,8.33
2018-01-24T06:58:59.594Z,9.40
2018-01-24T07:01:27.250Z,8.47
2018-01-24T07:03:55.545Z,7.43
2018-01-24T07:06:23.141Z,8.40
2018-01-24T07:08:50.719Z,8.03
2018-01-24T07:11:19.012Z,8.53
2018-01-24T07:13:47.281Z,8.97
2018-01-24T07:16:15.100Z,8.40
2018-01-24T07:18:42.505Z,8.10
2018-01-24T07:21:10.226Z,7.90
2018-01-24T07:23:37.778Z,8.70
2018-01-24T07:26:05.151Z,7.97
2018-01-24T07:28:32.570Z,8.83
2018-01-24T07:31:00.777Z,8.70
2018-01-24T07:33:28.262Z,8.57
2018-01-24T07:35:55.800Z,8.30
2018-01-24T07:38:23.201Z,8.60
2018-01-24T07:40:51.016Z,7.97
2018-01-24T07:43:18.536Z,8.47
2018-01-24T07:45:45.993Z,8.40
2018-01-24T07:48:13.406Z,7.73
2018-01-24T07:50:40.870Z,7.93
2018-01-24T07:53:08.359Z,8.07
2018-01-24T07:55:36.075Z,8.07
2018-01-24T07:58:03.539Z,7.77
2018-01-24T08:00:30.930Z,8.40
2018-01-24T08:02:58.408Z,8.87
2018-01-24T08:05:25.890Z,8.50
2018-01-24T08:07:53.677Z,9.00
2018-01-24T08:10:21.557Z,8.70
2018-01-24T08:12:49.006Z,7.50
2018-01-24T08:15:16.669Z,8.60
2018-01-24T08:17:44.620Z,8.47
2018-01-24T08:20:13.122Z,7.90
2018-01-24T08:22:41.348Z,7.87
2018-01-24T08:25:08.856Z,7.77
2018-01-24T08:27:36.539Z,8.20
2018-01-24T08:30:03.983Z,7.90
2018-01-24T08:32:31.457Z,7.80
2018-01-24T08:34:59.210Z,8.80
2018-01-24T08:37:26.773Z,7.00
2018-01-24T08:39:54.242Z,8.23
2018-01-24T08:42:22.885Z,8.47
2018-01-24T08:44:50.341Z,7.20
2018-01-24T08:47:18.486Z,7.97
2018-01-24T08:49:46.022Z,8.80
2018-01-24T08:52:13.429Z,8.33
2018-01-24T08:54:40.890Z,8.67
2018-01-24T08:57:08.353Z,7.00
2018-01-24T08:59:37.486Z,7.83
2018-01-24T09:02:05.021Z,8.10
2018-01-24T09:04:33.206Z,7.63
2018-01-24T09:07:00.613Z,9.83
2018-01-24T09:09:28.210Z,8.73
2018-01-24T09:11:55.653Z,7.90
2018-01-24T09:14:23.042Z,7.77
2018-01-24T09:16:51.306Z,10.10
2018-01-24T09:19:18.752Z,8.13
2018-01-24T09:21:46.178Z,9.70
2018-01-24T09:24:13.553Z,8.50
2018-01-24T09:26:40.976Z,9.50
2018-01-24T09:29:08.389Z,8.87
2018-01-24T09:31:35.805Z,9.93
2018-01-24T09:34:03.252Z,9.63
2018-01-24T09:36:31.011Z,9.27
2018-01-24T09:38:58.674Z,10.17
2018-01-24T09:41:26.337Z,13.00
2018-01-24T09:43:53.744Z,10.63
2018-01-24T09:46:21.154Z,9.77
2018-01-24T09:48:48.587Z,10.27
2018-01-24T09:51:16.986Z,9.93
2018-01-24T09:53:45.138Z,10.47
2018-01-24T09:56:13.525Z,10.23
2018-01-24T09:58:41.480Z,10.43
2018-01-24T10:01:08.914Z,9.63
2018-01-24T10:03:36.316Z,11.37
2018-01-24T10:19:16.653Z,10.13
2018-01-24T10:21:44.837Z,10.00
2018-01-24T10:24:12.304Z,10.23
2018-01-24T10:26:40.000Z,11.07
2018-01-24T10:29:07.518Z,12.03
2018-01-24T10:31:34.917Z,12.67
2018-01-24T10:34:02.394Z,12.50
2018-01-24T10:36:29.920Z,11.40
2018-01-24T10:38:58.091Z,10.33
2018-01-24T10:41:26.317Z,13.03
2018-01-24T10:43:53.672Z,41.70
2018-01-24T10:46:21.082Z,31.30
2018-01-24T10:48:49.234Z,30.23
2018-01-24T10:51:16.628Z,34.20
2018-01-24T10:53:44.051Z,35.73
2018-01-24T10:56:11.642Z,42.27
2018-01-24T10:58:39.024Z,43.97
2018-01-24T11:01:06.999Z,44.57
2018-01-24T11:26:25.293Z,30.00
2018-01-24T11:28:53.944Z,27.13
2018-01-24T11:31:23.005Z,24.83
2018-01-24T11:33:50.788Z,24.13
2018-01-24T11:36:18.200Z,21.37
2018-01-24T11:38:46.422Z,21.17
2018-01-24T11:41:13.822Z,19.80
2018-01-24T11:43:41.963Z,18.33
2018-01-24T11:46:09.354Z,16.70
2018-01-24T11:48:37.494Z,17.00
2018-01-24T11:51:04.957Z,16.90
2018-01-24T11:53:32.567Z,19.97
2018-01-24T11:56:00.113Z,15.80
2018-01-24T11:58:28.494Z,17.03
2018-01-24T12:00:55.933Z,16.77
2018-01-24T12:03:23.331Z,30.02
2018-01-24T12:05:51.019Z,26.93
2018-01-24T12:08:18.461Z,21.50
2018-01-24T12:10:45.985Z,18.75
2018-01-24T12:13:14.455Z,14.80
2018-01-24T12:15:42.158Z,15.17
2018-01-24T12:18:10.288Z,15.03
2018-01-24T12:20:37.702Z,14.60
2018-01-24T12:23:05.155Z,14.13
2018-01-24T12:25:32.738Z,13.23
2018-01-24T12:28:00.685Z,12.50
2018-01-24T12:30:28.216Z,17.07
2018-01-24T12:32:55.623Z,13.60
2018-01-24T12:35:23.153Z,13.53
2018-01-24T12:37:51.340Z,14.03
2018-01-24T12:40:18.725Z,13.87
2018-01-24T12:42:46.305Z,17.43
2018-01-24T12:45:13.728Z,12.63
2018-01-24T12:47:41.156Z,13.63
2018-01-24T12:50:09.395Z,18.20
2018-01-24T12:52:37.126Z,17.00
2018-01-24T12:55:04.882Z,17.07
2018-01-24T12:57:32.758Z,13.83
2018-01-24T13:00:00.340Z,12.47
2018-01-24T13:02:27.772Z,13.00
2018-01-24T13:04:55.877Z,15.07
2018-01-24T13:07:23.258Z,18.90
2018-01-24T13:09:50.877Z,27.97
2018-01-24T13:12:18.382Z,15.93
2018-01-24T13:14:45.978Z,19.80
2018-01-24T13:17:14.116Z,15.90
2018-01-24T13:19:42.371Z,19.90
2018-01-24T13:22:09.806Z,17.50
2018-01-24T13:24:37.559Z,18.93
2018-01-24T13:27:04.940Z,19.57
2018-01-24T13:29:32.339Z,18.30
2018-01-24T13:32:00.409Z,16.60
2018-01-24T13:34:27.832Z,22.60
2018-01-24T13:36:55.433Z,17.23
2018-01-24T13:39:22.915Z,15.73
2018-01-24T13:41:51.060Z,20.13
2018-01-24T13:44:18.443Z,16.37
2018-01-24T13:46:46.697Z,14.30
2018-01-24T13:49:14.097Z,16.37
2018-01-24T13:51:41.565Z,13.63
2018-01-24T14:07:14.265Z,42.37
2018-01-24T14:09:42.935Z,42.17
2018-01-24T14:12:10.443Z,35.50
2018-01-24T14:14:38.809Z,29.63
2018-01-24T14:17:06.226Z,31.60
2018-01-24T14:19:34.423Z,27.40
2018-01-24T14:22:01.958Z,29.73
2018-01-24T14:24:30.504Z,23.60
2018-01-24T14:26:57.988Z,27.63
2018-01-24T14:29:26.154Z,24.50
2018-01-24T14:31:54.371Z,20.50
2018-01-24T14:34:21.781Z,19.93
2018-01-24T14:36:49.162Z,21.03
2018-01-24T14:39:17.331Z,22.97
2018-01-24T14:41:44.723Z,18.33
2018-01-24T14:44:12.856Z,18.83
2018-01-24T14:46:40.598Z,21.43
2018-01-24T14:49:08.074Z,17.27
2018-01-24T14:51:35.470Z,19.13
2018-01-24T14:54:03.331Z,19.70
2018-01-24T14:56:31.923Z,15.80
2018-01-24T14:58:59.414Z,18.93
2018-01-24T15:01:27.694Z,14.57
2018-01-24T15:03:55.317Z,16.33
2018-01-24T15:06:22.766Z,17.27
2018-01-24T15:08:50.553Z,14.77
2018-01-24T15:11:18.133Z,17.00
2018-01-24T15:13:45.532Z,18.53
2018-01-24T15:16:12.971Z,15.07
2018-01-24T15:18:40.584Z,16.50
2018-01-24T15:21:09.410Z,15.57
2018-01-24T15:23:36.780Z,15.47
2018-01-24T15:26:04.227Z,18.37
2018-01-24T15:28:31.763Z,15.30
2018-01-24T15:30:59.317Z,17.03
2018-01-24T15:33:26.756Z,17.43
2018-01-24T15:35:54.245Z,18.83
2018-01-24T15:38:21.889Z,19.77
2018-01-24T15:40:49.290Z,18.63
2018-01-24T15:43:16.709Z,19.80
2018-01-24T15:45:44.139Z,19.03
2018-01-24T15:48:11.520Z,17.63
2018-01-24T15:50:39.106Z,22.23
2018-01-24T15:53:06.808Z,19.00
2018-01-24T15:55:34.319Z,17.40
2018-01-24T15:58:01.714Z,18.57
2018-01-24T16:00:29.212Z,19.20
2018-01-24T16:02:57.390Z,17.87
2018-01-24T16:05:24.790Z,13.80
2018-01-24T16:07:53.000Z,13.73
2018-01-24T16:10:20.508Z,15.20
2018-01-24T16:12:48.034Z,13.77
2018-01-24T16:15:15.779Z,13.90
2018-01-24T16:17:43.209Z,16.87
2018-01-24T16:20:10.631Z,19.57
2018-01-24T16:22:38.795Z,16.10
2018-01-24T16:25:07.206Z,15.83
2018-01-24T16:27:35.077Z,18.30
2018-01-24T16:30:02.651Z,14.90
2018-01-24T16:32:30.087Z,14.37
2018-01-24T16:34:57.517Z,20.10
2018-01-24T16:37:26.049Z,16.33
2018-01-24T16:39:53.609Z,14.70
2018-01-24T16:42:21.005Z,15.90
2018-01-24T16:44:48.459Z,20.55
2018-01-24T16:47:15.893Z,13.30
2018-01-24T16:49:43.487Z,17.03
2018-01-24T16:52:11.249Z,15.17
2018-01-24T16:54:38.655Z,14.23
2018-01-24T16:57:06.126Z,14.20
2018-01-24T16:59:33.522Z,16.93
2018-01-24T17:02:08.201Z,12.37
2018-01-24T17:04:36.067Z,13.40
2018-01-24T17:07:03.950Z,12.87
2018-01-24T17:09:31.784Z,12.27
2018-01-24T17:12:00.298Z,11.17
2018-01-24T17:14:27.942Z,14.37
2018-01-24T17:16:56.437Z,14.23
2018-01-24T17:19:24.593Z,11.03
2018-01-24T17:21:52.172Z,15.93
2018-01-24T17:24:19.605Z,10.80
2018-01-24T17:26:48.116Z,15.37
2018-01-24T17:29:15.534Z,15.83
2018-01-24T17:31:42.995Z,9.73
2018-01-24T17:34:11.267Z,10.13
2018-01-24T17:36:38.740Z,13.77
2018-01-24T17:39:06.163Z,9.50
2018-01-24T17:41:33.586Z,11.13
2018-01-24T17:44:01.221Z,14.07
2018-01-24T17:46:28.715Z,9.47
2018-01-24T17:48:56.473Z,10.37
2018-01-24T17:51:24.088Z,10.67
2018-01-24T17:53:52.273Z,9.90
2018-01-24T17:56:19.666Z,9.27
2018-01-24T17:58:47.327Z,10.00
2018-01-24T18:01:14.935Z,10.13
2018-01-24T18:03:43.295Z,9.53
2018-01-24T18:06:10.838Z,12.77
2018-01-24T18:08:38.450Z,12.17
2018-01-24T18:11:07.042Z,10.07
2018-01-24T18:13:34.516Z,15.43
2018-01-24T18:16:01.980Z,13.50
2018-01-24T18:18:29.387Z,9.33
2018-01-24T18:20:57.136Z,9.67
2018-01-24T18:43:48.054Z,9.17
2018-01-24T18:46:15.579Z,11.93
2018-01-24T18:48:43.020Z,12.80
2018-01-24T18:51:10.778Z,12.97
2018-01-24T18:53:39.139Z,11.20
2018-01-24T18:56:08.062Z,12.10
2018-01-24T18:58:35.719Z,9.95
2018-01-24T19:01:04.146Z,10.03
2018-01-24T19:03:31.591Z,8.20
2018-01-24T19:05:59.087Z,11.00
2018-01-24T19:08:27.571Z,9.73
2018-01-24T19:10:55.012Z,15.17
2018-01-24T19:13:22.433Z,9.73
2018-01-24T19:15:49.915Z,9.70
2018-01-24T19:18:17.700Z,16.77
2018-01-24T19:20:45.157Z,13.93
2018-01-24T19:23:12.622Z,9.47
2018-01-24T19:25:41.044Z,10.23
2018-01-24T19:28:09.341Z,10.93
2018-01-24T19:30:37.239Z,10.50
2018-01-24T19:33:04.663Z,9.30
2018-01-24T19:35:32.103Z,11.17
2018-01-24T19:37:59.554Z,12.30
2018-01-24T19:40:27.024Z,11.80
2018-01-24T19:42:54.682Z,9.23
2018-01-24T19:45:22.559Z,11.40
2018-01-24T19:47:51.472Z,12.57
2018-01-24T19:50:18.886Z,8.93
2018-01-24T19:52:46.657Z,13.73
2018-01-24T19:55:14.252Z,9.40
2018-01-24T19:57:41.667Z,8.57
2018-01-24T20:00:10.175Z,10.40
2018-01-24T20:02:37.612Z,8.40
2018-01-24T20:05:05.775Z,11.30
2018-01-24T20:07:33.251Z,17.00
2018-01-24T20:10:00.723Z,10.73
2018-01-24T20:12:28.382Z,8.70
2018-01-24T20:14:55.862Z,8.97
2018-01-24T20:17:23.334Z,11.63
2018-01-24T20:19:50.842Z,10.73
2018-01-24T20:22:18.542Z,9.43
2018-01-24T20:24:46.300Z,10.00
2018-01-24T20:27:13.775Z,9.97
2018-01-24T20:29:41.289Z,12.17
2018-01-24T20:32:08.858Z,11.73
2018-01-24T20:34:36.364Z,11.33
2018-01-24T20:37:04.217Z,13.50
2018-01-24T20:39:31.725Z,11.67
2018-01-24T20:41:59.142Z,8.47
2018-01-24T20:44:26.547Z,12.90
2018-01-24T20:46:53.971Z,9.07
2018-01-24T20:49:22.326Z,11.43
2018-01-24T20:51:49.831Z,15.37
2018-01-24T20:54:17.306Z,9.63
2018-01-24T20:56:44.800Z,10.83
2018-01-24T20:59:12.392Z,7.43
2018-01-24T21:01:40.480Z,8.37
2018-01-24T21:04:07.915Z,10.40
2018-01-24T21:06:35.659Z,7.80
2018-01-24T21:09:03.176Z,9.07
2018-01-24T21:11:30.618Z,7.20
2018-01-24T21:13:58.936Z,11.03
2018-01-24T21:16:27.547Z,6.87
2018-01-24T21:18:55.274Z,9.70
2018-01-24T21:21:22.843Z,7.40
2018-01-24T21:23:51.043Z,8.50
2018-01-24T21:26:18.567Z,7.37
2018-01-24T21:28:46.387Z,12.10
2018-01-24T21:31:13.898Z,9.30
2018-01-24T21:33:41.390Z,8.80
2018-01-24T21:36:09.632Z,7.40
2018-01-24T21:38:37.154Z,7.40
2018-01-24T21:41:04.960Z,9.03
2018-01-24T21:43:32.780Z,8.63
2018-01-24T21:46:00.506Z,8.90
2018-01-24T21:48:28.052Z,11.13
2018-01-24T21:50:55.478Z,9.73
2018-01-24T21:53:23.033Z,7.63
2018-01-24T21:55:50.550Z,9.00
2018-01-24T21:58:18.666Z,8.37
2018-01-24T22:00:46.528Z,7.23
2018-01-24T22:03:14.825Z,8.03
2018-01-24T22:05:42.316Z,8.87
2018-01-24T22:08:09.900Z,7.60
2018-01-24T22:10:38.025Z,9.13
2018-01-24T22:13:05.761Z,7.10
2018-01-24T22:15:34.056Z,8.70
2018-01-24T22:18:01.501Z,8.23
2018-01-24T22:33:30.167Z,8.43
2018-01-24T22:35:57.579Z,9.57
2018-01-24T22:38:25.046Z,7.93
2018-01-24T22:40:53.395Z,9.63
2018-01-24T22:43:21.012Z,9.87
2018-01-24T22:45:48.824Z,8.73
2018-01-24T22:48:17.152Z,8.17
2018-01-24T22:50:44.550Z,9.97
2018-01-24T22:53:12.421Z,11.90
2018-01-24T22:55:39.843Z,8.00
2018-01-24T22:58:08.010Z,7.57
2018-01-24T23:00:35.556Z,8.13
2018-01-24T23:03:03.052Z,12.23
2018-01-24T23:05:31.452Z,11.87
2018-01-24T23:07:59.424Z,9.43
2018-01-24T23:10:27.293Z,13.37
2018-01-24T23:12:54.728Z,13.93
2018-01-24T23:15:22.908Z,10.10
2018-01-24T23:17:51.048Z,11.57
2018-01-24T23:20:18.484Z,11.07
2018-01-24T23:22:46.122Z,12.37
2018-01-24T23:25:14.428Z,12.40
2018-01-24T23:27:42.146Z,10.13
2018-01-24T23:30:10.322Z,12.13
2018-01-24T23:32:38.524Z,15.27
2018-01-24T23:35:06.175Z,8.70
2018-01-24T23:37:34.404Z,10.80
2018-01-24T23:40:01.890Z,11.53
2018-01-24T23:42:30.135Z,10.87
2018-01-24T23:44:57.538Z,8.90
2018-01-24T23:47:25.698Z,10.93
2018-01-24T23:49:53.962Z,11.02
2018-01-24T23:52:21.441Z,11.00
